sensor_id;sensor_type;location;lat;lon;timestamp;temperature;humidity
22526;DHT22;11429;50.842;4.386;2023-09-19T00:01:42;16.60;99.90
22526;DHT22;11429;50.842;4.386;2023-09-19T00:04:13;16.60;99.90
22526;DHT22;11429;50.842;4.386;2023-09-19T00:06:40;16.50;99.90
22526;DHT22;11429;50.842;4.386;2023-09-19T00:09:06;16.70;99.90
22526;DHT22;11429;50.842;4.386;2023-09-19T00:11:36;16.60;99.90
22526;DHT22;11429;50.842;4.386;2023-09-19T00:14:03;16.70;99.90
22526;DHT22;11429;50.842;4.386;2023-09-19T00:16:30;16.60;99.90
22526;DHT22;11429;50.842;4.386;2023-09-19T00:18:58;16.60;99.90
22526;DHT22;11429;50.842;4.386;2023-09-19T00:21:24;16.60;99.90
22526;DHT22;11429;50.842;4.386;2023-09-19T00:23:50;16.50;99.90
22526;DHT22;11429;50.842;4.386;2023-09-19T00:26:17;16.40;99.90
22526;DHT22;11429;50.842;4.386;2023-09-19T00:28:44;16.50;99.90
22526;DHT22;11429;50.842;4.386;2023-09-19T00:31:09;16.50;99.90
22526;DHT22;11429;50.842;4.386;2023-09-19T00:33:35;16.60;99.90
22526;DHT22;11429;50.842;4.386;2023-09-19T00:36:02;16.60;99.90
22526;DHT22;11429;50.842;4.386;2023-09-19T00:38:30;16.40;99.90
22526;DHT22;11429;50.842;4.386;2023-09-19T00:40:57;16.40;99.90
22526;DHT22;11429;50.842;4.386;2023-09-19T00:43:25;16.40;99.90
22526;DHT22;11429;50.842;4.386;2023-09-19T00:45:53;16.40;99.90
22526;DHT22;11429;50.842;4.386;2023-09-19T00:48:21;16.40;99.90
22526;DHT22;11429;50.842;4.386;2023-09-19T00:50:47;16.40;99.90
22526;DHT22;11429;50.842;4.386;2023-09-19T00:53:17;16.40;99.90
22526;DHT22;11429;50.842;4.386;2023-09-19T00:55:45;16.40;99.90
22526;DHT22;11429;50.842;4.386;2023-09-19T00:58:11;16.50;99.90
22526;DHT22;11429;50.842;4.386;2023-09-19T01:00:37;16.60;99.90
22526;DHT22;11429;50.842;4.386;2023-09-19T01:03:04;16.50;99.90
22526;DHT22;11429;50.842;4.386;2023-09-19T01:05:33;16.30;99.90
22526;DHT22;11429;50.842;4.386;2023-09-19T01:07:59;16.20;99.90
22526;DHT22;11429;50.842;4.386;2023-09-19T01:10:25;16.20;99.90
22526;DHT22;11429;50.842;4.386;2023-09-19T01:13:25;16.40;99.90
22526;DHT22;11429;50.842;4.386;2023-09-19T01:18:40;16.30;99.90
22526;DHT22;11429;50.842;4.386;2023-09-19T01:24:41;16.10;99.90
22526;DHT22;11429;50.842;4.386;2023-09-19T01:29:48;16.10;99.90
22526;DHT22;11429;50.842;4.386;2023-09-19T01:32:19;16.10;99.90
22526;DHT22;11429;50.842;4.386;2023-09-19T01:34:52;16.10;99.90
22526;DHT22;11429;50.842;4.386;2023-09-19T01:37:20;16.20;99.90
22526;DHT22;11429;50.842;4.386;2023-09-19T01:39:51;16.20;99.90
22526;DHT22;11429;50.842;4.386;2023-09-19T01:42:49;16.30;99.90
22526;DHT22;11429;50.842;4.386;2023-09-19T01:50:59;16.20;99.90
22526;DHT22;11429;50.842;4.386;2023-09-19T01:53:33;16.20;99.90
22526;DHT22;11429;50.842;4.386;2023-09-19T01:56:01;16.30;99.90
22526;DHT22;11429;50.842;4.386;2023-09-19T01:58:42;16.30;99.90
22526;DHT22;11429;50.842;4.386;2023-09-19T02:01:13;16.20;99.90
22526;DHT22;11429;50.842;4.386;2023-09-19T02:03:41;16.20;99.90
22526;DHT22;11429;50.842;4.386;2023-09-19T02:06:18;16.20;99.90
22526;DHT22;11429;50.842;4.386;2023-09-19T02:08:45;16.30;99.90
22526;DHT22;11429;50.842;4.386;2023-09-19T02:11:13;16.30;99.90
22526;DHT22;11429;50.842;4.386;2023-09-19T02:13:40;16.10;99.90
22526;DHT22;11429;50.842;4.386;2023-09-19T02:16:06;16.10;99.90
22526;DHT22;11429;50.842;4.386;2023-09-19T02:18:32;16.00;99.90
22526;DHT22;11429;50.842;4.386;2023-09-19T02:21:01;15.90;99.90
22526;DHT22;11429;50.842;4.386;2023-09-19T02:23:27;16.00;99.90
22526;DHT22;11429;50.842;4.386;2023-09-19T02:25:56;16.00;99.90
22526;DHT22;11429;50.842;4.386;2023-09-19T02:28:29;16.10;99.90
22526;DHT22;11429;50.842;4.386;2023-09-19T02:30:57;16.20;99.90
22526;DHT22;11429;50.842;4.386;2023-09-19T02:33:23;16.10;99.90
22526;DHT22;11429;50.842;4.386;2023-09-19T02:35:49;16.20;99.90
22526;DHT22;11429;50.842;4.386;2023-09-19T02:38:16;16.30;99.90
22526;DHT22;11429;50.842;4.386;2023-09-19T02:40:46;16.30;99.90
22526;DHT22;11429;50.842;4.386;2023-09-19T02:43:12;16.30;99.90
22526;DHT22;11429;50.842;4.386;2023-09-19T02:45:38;16.30;99.90
22526;DHT22;11429;50.842;4.386;2023-09-19T02:48:04;16.20;99.90
22526;DHT22;11429;50.842;4.386;2023-09-19T02:50:30;16.20;99.90
22526;DHT22;11429;50.842;4.386;2023-09-19T02:52:55;16.40;99.90
22526;DHT22;11429;50.842;4.386;2023-09-19T02:55:21;16.60;99.90
22526;DHT22;11429;50.842;4.386;2023-09-19T02:57:53;16.80;99.90
22526;DHT22;11429;50.842;4.386;2023-09-19T03:00:22;16.70;99.90
22526;DHT22;11429;50.842;4.386;2023-09-19T03:02:55;16.70;99.90
22526;DHT22;11429;50.842;4.386;2023-09-19T03:05:21;16.50;99.90
22526;DHT22;11429;50.842;4.386;2023-09-19T03:07:49;16.40;99.90
22526;DHT22;11429;50.842;4.386;2023-09-19T03:10:16;16.20;99.90
22526;DHT22;11429;50.842;4.386;2023-09-19T03:12:43;16.30;99.90
22526;DHT22;11429;50.842;4.386;2023-09-19T03:15:09;16.30;99.90
22526;DHT22;11429;50.842;4.386;2023-09-19T03:17:35;16.20;99.90
22526;DHT22;11429;50.842;4.386;2023-09-19T03:20:01;16.10;99.90
22526;DHT22;11429;50.842;4.386;2023-09-19T03:22:27;16.00;99.90
22526;DHT22;11429;50.842;4.386;2023-09-19T03:24:53;16.00;99.90
22526;DHT22;11429;50.842;4.386;2023-09-19T03:27:19;16.10;99.90
22526;DHT22;11429;50.842;4.386;2023-09-19T03:29:46;16.10;99.90
22526;DHT22;11429;50.842;4.386;2023-09-19T03:32:12;16.10;99.90
22526;DHT22;11429;50.842;4.386;2023-09-19T03:34:39;16.00;99.90
22526;DHT22;11429;50.842;4.386;2023-09-19T03:37:11;15.90;99.90
22526;DHT22;11429;50.842;4.386;2023-09-19T03:39:37;15.90;99.90
22526;DHT22;11429;50.842;4.386;2023-09-19T03:42:03;15.60;99.90
22526;DHT22;11429;50.842;4.386;2023-09-19T03:44:30;15.60;99.90
22526;DHT22;11429;50.842;4.386;2023-09-19T03:46:56;15.60;99.90
22526;DHT22;11429;50.842;4.386;2023-09-19T03:49:22;15.60;99.90
22526;DHT22;11429;50.842;4.386;2023-09-19T03:51:48;15.40;99.90
22526;DHT22;11429;50.842;4.386;2023-09-19T03:54:14;15.40;99.90
22526;DHT22;11429;50.842;4.386;2023-09-19T03:56:39;15.50;99.90
22526;DHT22;11429;50.842;4.386;2023-09-19T03:59:05;15.40;99.90
22526;DHT22;11429;50.842;4.386;2023-09-19T04:01:31;15.40;99.90
22526;DHT22;11429;50.842;4.386;2023-09-19T04:03:59;15.40;99.90
22526;DHT22;11429;50.842;4.386;2023-09-19T04:06:33;15.30;99.90
22526;DHT22;11429;50.842;4.386;2023-09-19T04:09:00;15.30;99.90
22526;DHT22;11429;50.842;4.386;2023-09-19T04:11:27;15.30;99.90
22526;DHT22;11429;50.842;4.386;2023-09-19T04:13:52;15.20;99.90
22526;DHT22;11429;50.842;4.386;2023-09-19T04:16:18;15.20;99.90
22526;DHT22;11429;50.842;4.386;2023-09-19T04:18:45;15.20;99.90
22526;DHT22;11429;50.842;4.386;2023-09-19T04:21:10;15.30;99.90
22526;DHT22;11429;50.842;4.386;2023-09-19T04:23:36;15.30;99.90
22526;DHT22;11429;50.842;4.386;2023-09-19T04:26:02;15.40;99.90
22526;DHT22;11429;50.842;4.386;2023-09-19T04:28:30;15.40;99.90
22526;DHT22;11429;50.842;4.386;2023-09-19T04:30:57;15.40;99.90
22526;DHT22;11429;50.842;4.386;2023-09-19T04:33:25;15.30;99.90
22526;DHT22;11429;50.842;4.386;2023-09-19T04:35:52;15.30;99.90
22526;DHT22;11429;50.842;4.386;2023-09-19T04:38:18;15.30;99.90
22526;DHT22;11429;50.842;4.386;2023-09-19T04:40:45;15.40;99.90
22526;DHT22;11429;50.842;4.386;2023-09-19T04:43:11;15.30;99.90
22526;DHT22;11429;50.842;4.386;2023-09-19T04:45:38;15.30;99.90
22526;DHT22;11429;50.842;4.386;2023-09-19T04:48:24;15.30;99.90
22526;DHT22;11429;50.842;4.386;2023-09-19T04:50:50;15.40;99.90
22526;DHT22;11429;50.842;4.386;2023-09-19T04:53:17;15.50;99.90
22526;DHT22;11429;50.842;4.386;2023-09-19T04:55:52;15.40;99.90
22526;DHT22;11429;50.842;4.386;2023-09-19T04:58:18;15.40;99.90
22526;DHT22;11429;50.842;4.386;2023-09-19T05:00:45;15.30;99.90
22526;DHT22;11429;50.842;4.386;2023-09-19T05:03:11;15.40;99.90
22526;DHT22;11429;50.842;4.386;2023-09-19T05:05:37;15.40;99.90
22526;DHT22;11429;50.842;4.386;2023-09-19T05:08:04;15.30;99.90
22526;DHT22;11429;50.842;4.386;2023-09-19T05:10:32;15.40;99.90
22526;DHT22;11429;50.842;4.386;2023-09-19T05:12:57;15.30;99.90
22526;DHT22;11429;50.842;4.386;2023-09-19T05:15:23;15.30;99.90
22526;DHT22;11429;50.842;4.386;2023-09-19T05:17:50;15.30;99.90
22526;DHT22;11429;50.842;4.386;2023-09-19T05:20:17;15.30;99.90
22526;DHT22;11429;50.842;4.386;2023-09-19T05:23:00;15.20;99.90
22526;DHT22;11429;50.842;4.386;2023-09-19T05:25:28;15.20;99.90
22526;DHT22;11429;50.842;4.386;2023-09-19T05:27:57;15.40;99.90
22526;DHT22;11429;50.842;4.386;2023-09-19T05:30:23;15.40;99.90
22526;DHT22;11429;50.842;4.386;2023-09-19T05:32:49;15.40;99.90
22526;DHT22;11429;50.842;4.386;2023-09-19T05:35:15;15.40;99.90
22526;DHT22;11429;50.842;4.386;2023-09-19T05:37:41;15.40;99.90
22526;DHT22;11429;50.842;4.386;2023-09-19T05:40:07;15.50;99.90
22526;DHT22;11429;50.842;4.386;2023-09-19T05:42:38;15.40;99.90
22526;DHT22;11429;50.842;4.386;2023-09-19T05:45:05;15.40;99.90
22526;DHT22;11429;50.842;4.386;2023-09-19T05:47:32;15.50;99.90
22526;DHT22;11429;50.842;4.386;2023-09-19T05:49:58;15.50;99.90
22526;DHT22;11429;50.842;4.386;2023-09-19T05:52:25;15.40;99.90
22526;DHT22;11429;50.842;4.386;2023-09-19T05:54:50;15.50;99.90
22526;DHT22;11429;50.842;4.386;2023-09-19T05:57:16;15.60;99.90
22526;DHT22;11429;50.842;4.386;2023-09-19T05:59:42;15.60;99.90
22526;DHT22;11429;50.842;4.386;2023-09-19T06:02:08;15.60;99.90
22526;DHT22;11429;50.842;4.386;2023-09-19T06:04:35;15.60;99.90
22526;DHT22;11429;50.842;4.386;2023-09-19T06:07:01;15.60;99.90
22526;DHT22;11429;50.842;4.386;2023-09-19T06:09:29;15.60;99.90
22526;DHT22;11429;50.842;4.386;2023-09-19T06:11:57;15.60;99.90
22526;DHT22;11429;50.842;4.386;2023-09-19T06:14:23;15.60;99.90
22526;DHT22;11429;50.842;4.386;2023-09-19T06:16:50;15.60;99.90
22526;DHT22;11429;50.842;4.386;2023-09-19T06:19:15;15.70;99.90
22526;DHT22;11429;50.842;4.386;2023-09-19T06:21:41;15.80;99.90
22526;DHT22;11429;50.842;4.386;2023-09-19T06:24:07;16.10;99.90
22526;DHT22;11429;50.842;4.386;2023-09-19T06:26:33;16.10;99.90
22526;DHT22;11429;50.842;4.386;2023-09-19T06:28:59;16.10;99.90
22526;DHT22;11429;50.842;4.386;2023-09-19T06:31:25;16.00;99.90
22526;DHT22;11429;50.842;4.386;2023-09-19T06:33:52;16.10;99.90
22526;DHT22;11429;50.842;4.386;2023-09-19T06:36:18;16.10;99.90
22526;DHT22;11429;50.842;4.386;2023-09-19T06:38:45;16.10;99.90
22526;DHT22;11429;50.842;4.386;2023-09-19T06:41:10;16.20;99.90
22526;DHT22;11429;50.842;4.386;2023-09-19T06:43:37;16.30;99.90
22526;DHT22;11429;50.842;4.386;2023-09-19T06:46:04;16.50;99.90
22526;DHT22;11429;50.842;4.386;2023-09-19T06:48:32;16.50;99.90
22526;DHT22;11429;50.842;4.386;2023-09-19T06:50:59;16.70;99.90
22526;DHT22;11429;50.842;4.386;2023-09-19T06:53:31;16.90;99.90
22526;DHT22;11429;50.842;4.386;2023-09-19T06:55:57;16.90;99.90
22526;DHT22;11429;50.842;4.386;2023-09-19T06:58:23;17.00;99.90
22526;DHT22;11429;50.842;4.386;2023-09-19T07:00:49;16.80;99.90
22526;DHT22;11429;50.842;4.386;2023-09-19T07:03:15;16.90;99.90
22526;DHT22;11429;50.842;4.386;2023-09-19T07:05:48;16.90;99.90
22526;DHT22;11429;50.842;4.386;2023-09-19T07:08:14;16.80;99.90
22526;DHT22;11429;50.842;4.386;2023-09-19T07:10:41;16.90;99.90
22526;DHT22;11429;50.842;4.386;2023-09-19T07:13:14;16.90;99.90
22526;DHT22;11429;50.842;4.386;2023-09-19T07:15:42;17.00;99.90
22526;DHT22;11429;50.842;4.386;2023-09-19T07:18:17;17.00;99.90
22526;DHT22;11429;50.842;4.386;2023-09-19T07:20:44;17.10;99.90
22526;DHT22;11429;50.842;4.386;2023-09-19T07:23:20;17.20;99.90
22526;DHT22;11429;50.842;4.386;2023-09-19T07:25:48;17.20;99.90
22526;DHT22;11429;50.842;4.386;2023-09-19T07:28:14;17.40;99.90
22526;DHT22;11429;50.842;4.386;2023-09-19T07:30:40;17.40;99.90
22526;DHT22;11429;50.842;4.386;2023-09-19T07:33:07;17.40;99.90
22526;DHT22;11429;50.842;4.386;2023-09-19T07:35:37;17.20;99.90
22526;DHT22;11429;50.842;4.386;2023-09-19T07:38:05;17.30;99.90
22526;DHT22;11429;50.842;4.386;2023-09-19T07:40:31;17.50;99.90
22526;DHT22;11429;50.842;4.386;2023-09-19T07:42:57;17.50;99.90
22526;DHT22;11429;50.842;4.386;2023-09-19T07:45:27;17.40;99.90
22526;DHT22;11429;50.842;4.386;2023-09-19T07:47:53;17.40;99.90
22526;DHT22;11429;50.842;4.386;2023-09-19T07:50:19;17.40;99.90
22526;DHT22;11429;50.842;4.386;2023-09-19T07:52:46;17.50;99.90
22526;DHT22;11429;50.842;4.386;2023-09-19T07:55:12;17.50;99.90
22526;DHT22;11429;50.842;4.386;2023-09-19T07:57:43;17.60;99.90
22526;DHT22;11429;50.842;4.386;2023-09-19T08:00:10;17.70;99.90
22526;DHT22;11429;50.842;4.386;2023-09-19T08:02:39;17.60;99.90
22526;DHT22;11429;50.842;4.386;2023-09-19T08:05:10;17.80;99.90
22526;DHT22;11429;50.842;4.386;2023-09-19T08:07:37;17.90;99.90
22526;DHT22;11429;50.842;4.386;2023-09-19T08:10:04;17.90;99.90
22526;DHT22;11429;50.842;4.386;2023-09-19T08:12:30;17.70;99.90
22526;DHT22;11429;50.842;4.386;2023-09-19T08:14:56;17.70;99.90
22526;DHT22;11429;50.842;4.386;2023-09-19T08:17:22;17.70;99.90
22526;DHT22;11429;50.842;4.386;2023-09-19T08:19:50;17.90;99.90
22526;DHT22;11429;50.842;4.386;2023-09-19T08:22:21;18.10;99.90
22526;DHT22;11429;50.842;4.386;2023-09-19T08:24:49;18.10;99.90
22526;DHT22;11429;50.842;4.386;2023-09-19T08:27:15;18.30;99.90
22526;DHT22;11429;50.842;4.386;2023-09-19T08:29:40;18.30;99.90
22526;DHT22;11429;50.842;4.386;2023-09-19T08:32:07;18.20;99.90
22526;DHT22;11429;50.842;4.386;2023-09-19T08:34:33;18.40;99.90
22526;DHT22;11429;50.842;4.386;2023-09-19T08:36:59;18.50;99.90
22526;DHT22;11429;50.842;4.386;2023-09-19T08:39:25;18.50;99.90
22526;DHT22;11429;50.842;4.386;2023-09-19T08:41:58;18.60;99.90
22526;DHT22;11429;50.842;4.386;2023-09-19T08:44:27;18.70;99.90
22526;DHT22;11429;50.842;4.386;2023-09-19T08:47:05;18.90;99.90
22526;DHT22;11429;50.842;4.386;2023-09-19T08:52:43;19.10;99.90
22526;DHT22;11429;50.842;4.386;2023-09-19T08:55:13;19.80;99.90
22526;DHT22;11429;50.842;4.386;2023-09-19T08:57:46;20.50;99.90
22526;DHT22;11429;50.842;4.386;2023-09-19T09:00:15;20.80;99.90
22526;DHT22;11429;50.842;4.386;2023-09-19T09:02:44;20.10;99.90
22526;DHT22;11429;50.842;4.386;2023-09-19T09:05:10;20.30;99.90
22526;DHT22;11429;50.842;4.386;2023-09-19T09:07:37;20.00;99.90
22526;DHT22;11429;50.842;4.386;2023-09-19T09:10:04;19.90;99.90
22526;DHT22;11429;50.842;4.386;2023-09-19T09:12:30;19.60;99.90
22526;DHT22;11429;50.842;4.386;2023-09-19T09:14:56;19.90;99.90
22526;DHT22;11429;50.842;4.386;2023-09-19T09:17:23;20.00;99.90
22526;DHT22;11429;50.842;4.386;2023-09-19T09:19:53;19.90;99.90
22526;DHT22;11429;50.842;4.386;2023-09-19T09:22:19;20.00;99.90
22526;DHT22;11429;50.842;4.386;2023-09-19T09:24:57;20.30;99.90
22526;DHT22;11429;50.842;4.386;2023-09-19T09:27:30;20.20;99.90
22526;DHT22;11429;50.842;4.386;2023-09-19T09:29:58;20.30;99.90
22526;DHT22;11429;50.842;4.386;2023-09-19T09:32:30;20.60;99.90
22526;DHT22;11429;50.842;4.386;2023-09-19T09:35:02;20.70;99.90
22526;DHT22;11429;50.842;4.386;2023-09-19T09:37:33;20.60;99.90
22526;DHT22;11429;50.842;4.386;2023-09-19T09:40:01;20.70;99.90
22526;DHT22;11429;50.842;4.386;2023-09-19T09:42:42;20.70;99.90
22526;DHT22;11429;50.842;4.386;2023-09-19T09:45:24;20.00;99.90
22526;DHT22;11429;50.842;4.386;2023-09-19T09:47:59;19.60;99.90
22526;DHT22;11429;50.842;4.386;2023-09-19T09:50:31;19.80;99.90
22526;DHT22;11429;50.842;4.386;2023-09-19T09:53:26;19.80;99.90
22526;DHT22;11429;50.842;4.386;2023-09-19T09:56:07;19.70;99.90
22526;DHT22;11429;50.842;4.386;2023-09-19T09:58:37;20.00;99.90
22526;DHT22;11429;50.842;4.386;2023-09-19T10:01:06;19.60;99.90
22526;DHT22;11429;50.842;4.386;2023-09-19T10:03:39;19.80;99.90
22526;DHT22;11429;50.842;4.386;2023-09-19T10:06:11;20.20;99.90
22526;DHT22;11429;50.842;4.386;2023-09-19T10:09:01;20.40;99.90
22526;DHT22;11429;50.842;4.386;2023-09-19T10:12:05;20.60;99.90
22526;DHT22;11429;50.842;4.386;2023-09-19T10:14:37;21.10;99.90
22526;DHT22;11429;50.842;4.386;2023-09-19T10:17:05;21.80;99.90
22526;DHT22;11429;50.842;4.386;2023-09-19T10:22:05;22.50;99.90
22526;DHT22;11429;50.842;4.386;2023-09-19T10:24:35;22.70;99.90
22526;DHT22;11429;50.842;4.386;2023-09-19T10:27:05;23.50;99.90
22526;DHT22;11429;50.842;4.386;2023-09-19T10:29:34;24.00;99.90
22526;DHT22;11429;50.842;4.386;2023-09-19T10:32:03;24.10;99.90
22526;DHT22;11429;50.842;4.386;2023-09-19T10:34:35;23.70;99.90
22526;DHT22;11429;50.842;4.386;2023-09-19T10:37:02;23.60;99.90
22526;DHT22;11429;50.842;4.386;2023-09-19T10:39:35;23.60;99.90
22526;DHT22;11429;50.842;4.386;2023-09-19T10:42:06;23.50;99.90
22526;DHT22;11429;50.842;4.386;2023-09-19T10:44:37;23.60;99.90
22526;DHT22;11429;50.842;4.386;2023-09-19T10:47:09;24.00;99.90
22526;DHT22;11429;50.842;4.386;2023-09-19T10:49:35;24.40;99.90
22526;DHT22;11429;50.842;4.386;2023-09-19T10:52:08;24.90;99.90
22526;DHT22;11429;50.842;4.386;2023-09-19T10:54:38;24.90;99.90
22526;DHT22;11429;50.842;4.386;2023-09-19T10:57:10;24.60;99.90
22526;DHT22;11429;50.842;4.386;2023-09-19T10:59:36;24.10;99.90
22526;DHT22;11429;50.842;4.386;2023-09-19T11:02:17;24.60;99.90
22526;DHT22;11429;50.842;4.386;2023-09-19T11:04:43;24.60;99.90
22526;DHT22;11429;50.842;4.386;2023-09-19T11:07:12;24.90;99.90
22526;DHT22;11429;50.842;4.386;2023-09-19T11:12:24;24.40;99.90
22526;DHT22;11429;50.842;4.386;2023-09-19T11:15:01;25.00;99.90
22526;DHT22;11429;50.842;4.386;2023-09-19T11:17:38;25.50;99.90
22526;DHT22;11429;50.842;4.386;2023-09-19T11:30:37;23.80;99.90
22526;DHT22;11429;50.842;4.386;2023-09-19T11:33:16;23.50;99.90
22526;DHT22;11429;50.842;4.386;2023-09-19T11:49:18;22.20;99.90
22526;DHT22;11429;50.842;4.386;2023-09-19T11:51:51;22.00;99.90
22526;DHT22;11429;50.842;4.386;2023-09-19T11:54:20;22.40;99.90
22526;DHT22;11429;50.842;4.386;2023-09-19T11:56:51;22.40;99.90
22526;DHT22;11429;50.842;4.386;2023-09-19T11:59:24;22.40;99.90
22526;DHT22;11429;50.842;4.386;2023-09-19T12:01:57;22.40;99.90
22526;DHT22;11429;50.842;4.386;2023-09-19T12:04:39;22.10;99.90
22526;DHT22;11429;50.842;4.386;2023-09-19T12:07:10;22.20;99.90
22526;DHT22;11429;50.842;4.386;2023-09-19T12:12:23;22.20;99.90
22526;DHT22;11429;50.842;4.386;2023-09-19T12:14:49;22.40;99.90
22526;DHT22;11429;50.842;4.386;2023-09-19T12:17:19;22.40;99.90
22526;DHT22;11429;50.842;4.386;2023-09-19T12:19:52;22.20;99.90
22526;DHT22;11429;50.842;4.386;2023-09-19T12:22:18;22.00;99.90
22526;DHT22;11429;50.842;4.386;2023-09-19T12:24:46;21.90;99.90
22526;DHT22;11429;50.842;4.386;2023-09-19T12:27:12;21.60;99.90
22526;DHT22;11429;50.842;4.386;2023-09-19T12:29:48;21.80;99.90
22526;DHT22;11429;50.842;4.386;2023-09-19T12:32:15;21.90;99.90
22526;DHT22;11429;50.842;4.386;2023-09-19T12:34:45;21.90;99.90
22526;DHT22;11429;50.842;4.386;2023-09-19T12:37:15;21.90;99.90
22526;DHT22;11429;50.842;4.386;2023-09-19T12:39:47;22.20;99.90
22526;DHT22;11429;50.842;4.386;2023-09-19T12:42:20;21.70;99.90
22526;DHT22;11429;50.842;4.386;2023-09-19T12:44:48;21.80;99.90
22526;DHT22;11429;50.842;4.386;2023-09-19T12:47:18;22.00;99.90
22526;DHT22;11429;50.842;4.386;2023-09-19T12:50:15;22.20;99.90
22526;DHT22;11429;50.842;4.386;2023-09-19T12:52:52;22.30;99.90
22526;DHT22;11429;50.842;4.386;2023-09-19T12:55:30;22.50;99.90
22526;DHT22;11429;50.842;4.386;2023-09-19T12:58:14;22.00;99.90
22526;DHT22;11429;50.842;4.386;2023-09-19T13:00:45;22.30;99.90
22526;DHT22;11429;50.842;4.386;2023-09-19T13:06:01;21.80;99.90
22526;DHT22;11429;50.842;4.386;2023-09-19T13:08:33;22.10;99.90
22526;DHT22;11429;50.842;4.386;2023-09-19T13:11:04;22.00;99.90
22526;DHT22;11429;50.842;4.386;2023-09-19T13:13:41;22.00;99.90
22526;DHT22;11429;50.842;4.386;2023-09-19T13:16:07;21.80;99.90
22526;DHT22;11429;50.842;4.386;2023-09-19T13:18:42;21.90;99.90
22526;DHT22;11429;50.842;4.386;2023-09-19T13:21:10;21.80;99.90
22526;DHT22;11429;50.842;4.386;2023-09-19T13:23:38;22.10;99.90
22526;DHT22;11429;50.842;4.386;2023-09-19T13:26:04;22.30;99.90
22526;DHT22;11429;50.842;4.386;2023-09-19T13:28:32;22.50;99.90
22526;DHT22;11429;50.842;4.386;2023-09-19T13:30:58;22.50;99.90
22526;DHT22;11429;50.842;4.386;2023-09-19T13:33:26;22.40;99.90
22526;DHT22;11429;50.842;4.386;2023-09-19T13:35:56;22.10;99.90
22526;DHT22;11429;50.842;4.386;2023-09-19T13:38:22;22.20;99.90
22526;DHT22;11429;50.842;4.386;2023-09-19T13:40:48;22.50;99.90
22526;DHT22;11429;50.842;4.386;2023-09-19T13:43:15;22.70;99.90
22526;DHT22;11429;50.842;4.386;2023-09-19T13:45:41;22.50;99.90
22526;DHT22;11429;50.842;4.386;2023-09-19T13:48:08;22.40;99.90
22526;DHT22;11429;50.842;4.386;2023-09-19T13:50:37;22.60;99.90
22526;DHT22;11429;50.842;4.386;2023-09-19T13:53:08;22.50;99.90
22526;DHT22;11429;50.842;4.386;2023-09-19T13:55:34;22.20;99.90
22526;DHT22;11429;50.842;4.386;2023-09-19T13:58:00;22.10;99.90
22526;DHT22;11429;50.842;4.386;2023-09-19T14:00:26;22.00;99.90
22526;DHT22;11429;50.842;4.386;2023-09-19T14:02:52;22.00;99.90
22526;DHT22;11429;50.842;4.386;2023-09-19T14:05:18;21.90;99.90
22526;DHT22;11429;50.842;4.386;2023-09-19T14:07:46;21.60;99.90
22526;DHT22;11429;50.842;4.386;2023-09-19T14:10:12;21.50;99.90
22526;DHT22;11429;50.842;4.386;2023-09-19T14:12:38;21.70;99.90
22526;DHT22;11429;50.842;4.386;2023-09-19T14:15:08;21.80;99.90
22526;DHT22;11429;50.842;4.386;2023-09-19T14:17:34;21.70;99.90
22526;DHT22;11429;50.842;4.386;2023-09-19T14:20:00;21.50;99.90
22526;DHT22;11429;50.842;4.386;2023-09-19T14:22:26;21.30;99.90
22526;DHT22;11429;50.842;4.386;2023-09-19T14:24:51;21.40;99.90
22526;DHT22;11429;50.842;4.386;2023-09-19T14:27:18;21.60;99.90
22526;DHT22;11429;50.842;4.386;2023-09-19T14:29:44;22.20;99.90
22526;DHT22;11429;50.842;4.386;2023-09-19T14:32:10;21.90;99.90
22526;DHT22;11429;50.842;4.386;2023-09-19T14:34:36;21.90;99.90
22526;DHT22;11429;50.842;4.386;2023-09-19T14:37:07;21.80;99.90
22526;DHT22;11429;50.842;4.386;2023-09-19T14:39:33;21.70;99.90
22526;DHT22;11429;50.842;4.386;2023-09-19T14:41:59;21.50;99.90
22526;DHT22;11429;50.842;4.386;2023-09-19T14:44:25;21.60;99.90
22526;DHT22;11429;50.842;4.386;2023-09-19T14:46:50;21.70;99.90
22526;DHT22;11429;50.842;4.386;2023-09-19T14:49:16;21.40;99.90
22526;DHT22;11429;50.842;4.386;2023-09-19T14:51:42;21.30;99.90
22526;DHT22;11429;50.842;4.386;2023-09-19T14:54:13;21.40;99.90
22526;DHT22;11429;50.842;4.386;2023-09-19T14:56:42;21.50;99.90
22526;DHT22;11429;50.842;4.386;2023-09-19T14:59:08;21.60;99.90
22526;DHT22;11429;50.842;4.386;2023-09-19T15:01:36;21.70;99.90
22526;DHT22;11429;50.842;4.386;2023-09-19T15:04:02;21.80;99.90
22526;DHT22;11429;50.842;4.386;2023-09-19T15:06:27;21.70;99.90
22526;DHT22;11429;50.842;4.386;2023-09-19T15:08:53;21.70;99.90
22526;DHT22;11429;50.842;4.386;2023-09-19T15:11:20;21.50;99.90
22526;DHT22;11429;50.842;4.386;2023-09-19T15:13:47;21.30;99.90
22526;DHT22;11429;50.842;4.386;2023-09-19T15:16:14;21.40;99.90
22526;DHT22;11429;50.842;4.386;2023-09-19T15:18:42;21.30;99.90
22526;DHT22;11429;50.842;4.386;2023-09-19T15:21:09;21.30;99.90
22526;DHT22;11429;50.842;4.386;2023-09-19T15:23:36;21.00;99.90
22526;DHT22;11429;50.842;4.386;2023-09-19T15:26:06;21.10;99.90
22526;DHT22;11429;50.842;4.386;2023-09-19T15:28:32;21.10;99.90
22526;DHT22;11429;50.842;4.386;2023-09-19T15:33:29;20.90;99.90
22526;DHT22;11429;50.842;4.386;2023-09-19T15:38:29;20.90;99.90
22526;DHT22;11429;50.842;4.386;2023-09-19T15:40:55;20.80;99.90
22526;DHT22;11429;50.842;4.386;2023-09-19T15:43:21;20.80;99.90
22526;DHT22;11429;50.842;4.386;2023-09-19T15:45:47;20.60;99.90
22526;DHT22;11429;50.842;4.386;2023-09-19T15:48:16;20.60;99.90
22526;DHT22;11429;50.842;4.386;2023-09-19T15:50:47;20.70;99.90
22526;DHT22;11429;50.842;4.386;2023-09-19T15:53:12;20.60;99.90
22526;DHT22;11429;50.842;4.386;2023-09-19T15:55:39;20.60;99.90
22526;DHT22;11429;50.842;4.386;2023-09-19T15:58:05;20.50;99.90
22526;DHT22;11429;50.842;4.386;2023-09-19T16:00:34;20.40;99.90
22526;DHT22;11429;50.842;4.386;2023-09-19T16:03:02;20.50;99.90
22526;DHT22;11429;50.842;4.386;2023-09-19T16:05:28;20.50;99.90
22526;DHT22;11429;50.842;4.386;2023-09-19T16:07:54;20.50;99.90
22526;DHT22;11429;50.842;4.386;2023-09-19T16:10:19;20.60;99.90
22526;DHT22;11429;50.842;4.386;2023-09-19T16:12:47;20.50;99.90
22526;DHT22;11429;50.842;4.386;2023-09-19T16:15:13;20.40;99.90
22526;DHT22;11429;50.842;4.386;2023-09-19T16:17:41;20.60;99.90
22526;DHT22;11429;50.842;4.386;2023-09-19T16:20:07;20.50;99.90
22526;DHT22;11429;50.842;4.386;2023-09-19T16:22:33;20.50;99.90
22526;DHT22;11429;50.842;4.386;2023-09-19T16:24:59;20.30;99.90
22526;DHT22;11429;50.842;4.386;2023-09-19T16:27:25;20.30;99.90
22526;DHT22;11429;50.842;4.386;2023-09-19T16:29:50;20.30;99.90
22526;DHT22;11429;50.842;4.386;2023-09-19T16:32:16;20.30;99.90
22526;DHT22;11429;50.842;4.386;2023-09-19T16:34:42;20.20;99.90
22526;DHT22;11429;50.842;4.386;2023-09-19T16:37:08;20.00;99.90